Avent, Mississippi
Current Conditions -  °F | °C
As of 4:53 AM on Monday 22 Dec 2014 (Local Time) from KHBG Reporting Station
Moderate Fog Moderate Fog  
Wind Chill: 12°   Ceiling: 200
Heat Index: 12°   Visibility: 0.5mi
Dew Point: 12°   Wind: 6mph
Humidity: 97%   Direction: 120°ESE
Pressure: 29.88"   Gusts: NA
Location:  31.0532°N, 88.8084°W
Report Text: KHBG 221053Z AUTO 12005KT 1/2SM FG VV002 12/12 A2988 RMK AO2 RAB16E53 SLP118 P0000 T01220117
Loading
Personal Weather Stations






























Interactive Weather Map New forecast layout! Learn more

10-Day Weather Forecast

Advertisements
Track Severe Weather on mobile